sensor_id;sensor_type;location;lat;lon;timestamp;P1;durP1;ratioP1;P2;durP2;ratioP2
25479;SDS011;13393;49.378;8.686;2023-02-12T00:01:47;22.25;;;14.23;;
25479;SDS011;13393;49.378;8.686;2023-02-12T00:04:13;22.25;;;13.60;;
25479;SDS011;13393;49.378;8.686;2023-02-12T00:06:42;28.23;;;16.23;;
25479;SDS011;13393;49.378;8.686;2023-02-12T00:09:08;26.40;;;15.85;;
25479;SDS011;13393;49.378;8.686;2023-02-12T00:11:34;28.38;;;18.20;;
25479;SDS011;13393;49.378;8.686;2023-02-12T00:14:01;28.23;;;17.23;;
25479;SDS011;13393;49.378;8.686;2023-02-12T00:16:29;31.63;;;19.42;;
25479;SDS011;13393;49.378;8.686;2023-02-12T00:18:56;28.95;;;17.55;;
25479;SDS011;13393;49.378;8.686;2023-02-12T00:21:22;29.33;;;18.45;;
25479;SDS011;13393;49.378;8.686;2023-02-12T00:23:50;27.58;;;17.42;;
25479;SDS011;13393;49.378;8.686;2023-02-12T00:26:17;30.27;;;18.88;;
25479;SDS011;13393;49.378;8.686;2023-02-12T00:28:44;29.17;;;18.55;;
25479;SDS011;13393;49.378;8.686;2023-02-12T00:31:11;31.55;;;18.30;;
25479;SDS011;13393;49.378;8.686;2023-02-12T00:33:37;28.52;;;17.35;;
25479;SDS011;13393;49.378;8.686;2023-02-12T00:36:05;30.92;;;19.05;;
25479;SDS011;13393;49.378;8.686;2023-02-12T00:38:32;28.48;;;18.40;;
25479;SDS011;13393;49.378;8.686;2023-02-12T00:40:59;27.40;;;18.45;;
25479;SDS011;13393;49.378;8.686;2023-02-12T00:43:26;28.40;;;18.45;;
25479;SDS011;13393;49.378;8.686;2023-02-12T00:45:52;28.38;;;16.45;;
25479;SDS011;13393;49.378;8.686;2023-02-12T00:48:19;26.10;;;16.55;;
25479;SDS011;13393;49.378;8.686;2023-02-12T00:50:46;25.60;;;16.98;;
25479;SDS011;13393;49.378;8.686;2023-02-12T00:53:13;26.83;;;17.00;;
25479;SDS011;13393;49.378;8.686;2023-02-12T00:55:39;25.20;;;15.25;;
25479;SDS011;13393;49.378;8.686;2023-02-12T00:58:07;27.67;;;16.15;;
25479;SDS011;13393;49.378;8.686;2023-02-12T01:00:33;26.85;;;15.80;;
25479;SDS011;13393;49.378;8.686;2023-02-12T01:03:00;23.05;;;14.93;;
25479;SDS011;13393;49.378;8.686;2023-02-12T01:05:26;24.33;;;15.65;;
25479;SDS011;13393;49.378;8.686;2023-02-12T01:07:52;25.27;;;16.45;;
25479;SDS011;13393;49.378;8.686;2023-02-12T01:10:19;25.33;;;15.60;;
25479;SDS011;13393;49.378;8.686;2023-02-12T01:12:46;23.38;;;14.77;;
25479;SDS011;13393;49.378;8.686;2023-02-12T01:15:14;24.95;;;16.33;;
25479;SDS011;13393;49.378;8.686;2023-02-12T01:17:40;28.27;;;16.58;;
25479;SDS011;13393;49.378;8.686;2023-02-12T01:20:07;28.35;;;17.08;;
25479;SDS011;13393;49.378;8.686;2023-02-12T01:22:34;26.83;;;16.65;;
25479;SDS011;13393;49.378;8.686;2023-02-12T01:25:01;26.05;;;16.67;;
25479;SDS011;13393;49.378;8.686;2023-02-12T01:27:27;28.70;;;16.85;;
25479;SDS011;13393;49.378;8.686;2023-02-12T01:29:54;26.60;;;16.10;;
25479;SDS011;13393;49.378;8.686;2023-02-12T01:32:21;29.45;;;16.55;;
25479;SDS011;13393;49.378;8.686;2023-02-12T01:34:48;25.27;;;16.40;;
25479;SDS011;13393;49.378;8.686;2023-02-12T01:37:14;24.42;;;15.93;;
25479;SDS011;13393;49.378;8.686;2023-02-12T01:39:41;35.92;;;20.35;;
25479;SDS011;13393;49.378;8.686;2023-02-12T01:42:09;30.27;;;20.08;;
25479;SDS011;13393;49.378;8.686;2023-02-12T01:44:38;29.08;;;19.35;;
25479;SDS011;13393;49.378;8.686;2023-02-12T01:47:11;38.90;;;21.95;;
25479;SDS011;13393;49.378;8.686;2023-02-12T01:49:42;31.38;;;20.73;;
25479;SDS011;13393;49.378;8.686;2023-02-12T01:52:11;33.40;;;19.65;;
25479;SDS011;13393;49.378;8.686;2023-02-12T01:54:38;33.67;;;21.67;;
25479;SDS011;13393;49.378;8.686;2023-02-12T01:57:05;32.67;;;21.95;;
25479;SDS011;13393;49.378;8.686;2023-02-12T01:59:33;34.70;;;20.05;;
25479;SDS011;13393;49.378;8.686;2023-02-12T02:02:00;35.00;;;21.58;;
25479;SDS011;13393;49.378;8.686;2023-02-12T02:04:28;39.58;;;22.58;;
25479;SDS011;13393;49.378;8.686;2023-02-12T02:06:58;34.17;;;21.05;;
25479;SDS011;13393;49.378;8.686;2023-02-12T02:09:24;38.58;;;21.63;;
25479;SDS011;13393;49.378;8.686;2023-02-12T02:11:51;35.67;;;21.33;;
25479;SDS011;13393;49.378;8.686;2023-02-12T02:14:35;38.40;;;22.30;;
25479;SDS011;13393;49.378;8.686;2023-02-12T02:17:06;31.75;;;20.85;;
25479;SDS011;13393;49.378;8.686;2023-02-12T02:19:42;36.05;;;22.38;;
25479;SDS011;13393;49.378;8.686;2023-02-12T02:22:22;36.63;;;22.52;;
25479;SDS011;13393;49.378;8.686;2023-02-12T02:24:53;36.97;;;22.27;;
25479;SDS011;13393;49.378;8.686;2023-02-12T02:27:26;34.50;;;22.10;;
25479;SDS011;13393;49.378;8.686;2023-02-12T02:32:42;45.73;;;25.00;;
25479;SDS011;13393;49.378;8.686;2023-02-12T02:35:09;42.40;;;23.85;;
25479;SDS011;13393;49.378;8.686;2023-02-12T02:37:38;38.97;;;22.83;;
25479;SDS011;13393;49.378;8.686;2023-02-12T02:40:07;36.60;;;22.75;;
25479;SDS011;13393;49.378;8.686;2023-02-12T02:42:36;34.47;;;21.48;;
25479;SDS011;13393;49.378;8.686;2023-02-12T02:45:05;36.75;;;23.90;;
25479;SDS011;13393;49.378;8.686;2023-02-12T02:47:35;38.92;;;24.38;;
25479;SDS011;13393;49.378;8.686;2023-02-12T02:50:05;38.10;;;24.77;;
25479;SDS011;13393;49.378;8.686;2023-02-12T02:52:34;41.05;;;25.02;;
25479;SDS011;13393;49.378;8.686;2023-02-12T02:55:02;41.80;;;26.10;;
25479;SDS011;13393;49.378;8.686;2023-02-12T02:57:30;41.60;;;23.42;;
25479;SDS011;13393;49.378;8.686;2023-02-12T02:59:59;39.10;;;23.67;;
25479;SDS011;13393;49.378;8.686;2023-02-12T03:02:28;38.72;;;23.85;;
25479;SDS011;13393;49.378;8.686;2023-02-12T03:04:57;38.30;;;24.27;;
25479;SDS011;13393;49.378;8.686;2023-02-12T03:07:26;37.13;;;22.80;;
25479;SDS011;13393;49.378;8.686;2023-02-12T03:09:55;37.22;;;22.40;;
25479;SDS011;13393;49.378;8.686;2023-02-12T03:12:24;38.40;;;22.23;;
25479;SDS011;13393;49.378;8.686;2023-02-12T03:14:52;36.00;;;22.70;;
25479;SDS011;13393;49.378;8.686;2023-02-12T03:17:23;39.60;;;23.80;;
25479;SDS011;13393;49.378;8.686;2023-02-12T03:19:54;37.65;;;22.52;;
25479;SDS011;13393;49.378;8.686;2023-02-12T03:22:24;35.55;;;21.80;;
25479;SDS011;13393;49.378;8.686;2023-02-12T03:24:55;35.60;;;22.17;;
25479;SDS011;13393;49.378;8.686;2023-02-12T03:27:25;38.40;;;23.45;;
25479;SDS011;13393;49.378;8.686;2023-02-12T03:29:52;32.55;;;22.73;;
25479;SDS011;13393;49.378;8.686;2023-02-12T03:32:22;36.70;;;23.10;;
25479;SDS011;13393;49.378;8.686;2023-02-12T03:34:53;37.67;;;22.67;;
25479;SDS011;13393;49.378;8.686;2023-02-12T03:37:21;41.38;;;23.42;;
25479;SDS011;13393;49.378;8.686;2023-02-12T03:39:51;35.75;;;22.35;;
25479;SDS011;13393;49.378;8.686;2023-02-12T03:42:23;39.80;;;24.50;;
25479;SDS011;13393;49.378;8.686;2023-02-12T03:44:52;42.25;;;25.17;;
25479;SDS011;13393;49.378;8.686;2023-02-12T03:47:22;36.63;;;23.05;;
25479;SDS011;13393;49.378;8.686;2023-02-12T03:49:52;40.78;;;24.60;;
25479;SDS011;13393;49.378;8.686;2023-02-12T03:52:18;39.25;;;23.98;;
25479;SDS011;13393;49.378;8.686;2023-02-12T03:54:45;43.50;;;26.05;;
25479;SDS011;13393;49.378;8.686;2023-02-12T03:57:12;40.00;;;23.92;;
25479;SDS011;13393;49.378;8.686;2023-02-12T03:59:42;36.45;;;23.55;;
25479;SDS011;13393;49.378;8.686;2023-02-12T04:02:09;40.30;;;23.30;;
25479;SDS011;13393;49.378;8.686;2023-02-12T04:04:35;39.42;;;23.88;;
25479;SDS011;13393;49.378;8.686;2023-02-12T04:07:01;42.25;;;25.35;;
25479;SDS011;13393;49.378;8.686;2023-02-12T04:09:28;38.28;;;23.75;;
25479;SDS011;13393;49.378;8.686;2023-02-12T04:12:02;39.90;;;24.08;;
25479;SDS011;13393;49.378;8.686;2023-02-12T04:14:35;34.25;;;21.95;;
25479;SDS011;13393;49.378;8.686;2023-02-12T04:17:08;34.55;;;23.95;;
25479;SDS011;13393;49.378;8.686;2023-02-12T04:19:39;37.83;;;23.67;;
25479;SDS011;13393;49.378;8.686;2023-02-12T04:22:10;36.40;;;23.55;;
25479;SDS011;13393;49.378;8.686;2023-02-12T04:24:45;41.50;;;24.85;;
25479;SDS011;13393;49.378;8.686;2023-02-12T04:27:15;39.33;;;24.58;;
25479;SDS011;13393;49.378;8.686;2023-02-12T04:29:46;37.53;;;22.10;;
25479;SDS011;13393;49.378;8.686;2023-02-12T04:32:15;39.17;;;22.52;;
25479;SDS011;13393;49.378;8.686;2023-02-12T04:34:44;39.10;;;23.65;;
25479;SDS011;13393;49.378;8.686;2023-02-12T04:37:14;35.35;;;21.83;;
25479;SDS011;13393;49.378;8.686;2023-02-12T04:39:41;38.40;;;24.63;;
25479;SDS011;13393;49.378;8.686;2023-02-12T04:42:09;33.65;;;22.27;;
25479;SDS011;13393;49.378;8.686;2023-02-12T04:44:36;36.15;;;23.95;;
25479;SDS011;13393;49.378;8.686;2023-02-12T04:47:03;40.95;;;25.45;;
25479;SDS011;13393;49.378;8.686;2023-02-12T04:49:31;32.63;;;21.67;;
25479;SDS011;13393;49.378;8.686;2023-02-12T04:51:57;42.80;;;24.00;;
25479;SDS011;13393;49.378;8.686;2023-02-12T04:54:23;37.92;;;24.92;;
25479;SDS011;13393;49.378;8.686;2023-02-12T04:56:50;39.88;;;24.75;;
25479;SDS011;13393;49.378;8.686;2023-02-12T04:59:16;41.28;;;25.10;;
25479;SDS011;13393;49.378;8.686;2023-02-12T05:01:43;38.90;;;23.95;;
25479;SDS011;13393;49.378;8.686;2023-02-12T05:04:10;41.40;;;26.30;;
25479;SDS011;13393;49.378;8.686;2023-02-12T05:06:38;35.78;;;23.02;;
25479;SDS011;13393;49.378;8.686;2023-02-12T05:09:05;32.75;;;22.45;;
25479;SDS011;13393;49.378;8.686;2023-02-12T05:11:32;40.10;;;24.45;;
25479;SDS011;13393;49.378;8.686;2023-02-12T05:13:58;34.05;;;23.13;;
25479;SDS011;13393;49.378;8.686;2023-02-12T05:16:24;37.97;;;23.58;;
25479;SDS011;13393;49.378;8.686;2023-02-12T05:18:51;40.30;;;25.88;;
25479;SDS011;13393;49.378;8.686;2023-02-12T05:21:17;34.50;;;22.42;;
25479;SDS011;13393;49.378;8.686;2023-02-12T05:23:45;33.78;;;22.75;;
25479;SDS011;13393;49.378;8.686;2023-02-12T05:26:12;37.80;;;23.95;;
25479;SDS011;13393;49.378;8.686;2023-02-12T05:28:39;33.72;;;20.88;;
25479;SDS011;13393;49.378;8.686;2023-02-12T05:31:06;34.05;;;21.48;;
25479;SDS011;13393;49.378;8.686;2023-02-12T05:33:33;40.03;;;22.88;;
25479;SDS011;13393;49.378;8.686;2023-02-12T05:36:02;40.13;;;24.60;;
25479;SDS011;13393;49.378;8.686;2023-02-12T05:38:28;39.85;;;24.52;;
25479;SDS011;13393;49.378;8.686;2023-02-12T05:41:00;34.40;;;20.67;;
25479;SDS011;13393;49.378;8.686;2023-02-12T05:43:27;34.15;;;22.50;;
25479;SDS011;13393;49.378;8.686;2023-02-12T05:45:53;32.53;;;22.38;;
25479;SDS011;13393;49.378;8.686;2023-02-12T05:48:19;37.70;;;23.10;;
25479;SDS011;13393;49.378;8.686;2023-02-12T05:50:46;35.53;;;22.85;;
25479;SDS011;13393;49.378;8.686;2023-02-12T05:53:12;33.40;;;22.73;;
25479;SDS011;13393;49.378;8.686;2023-02-12T05:55:39;36.75;;;23.02;;
25479;SDS011;13393;49.378;8.686;2023-02-12T05:58:06;37.58;;;23.08;;
25479;SDS011;13393;49.378;8.686;2023-02-12T06:00:33;35.42;;;22.70;;
25479;SDS011;13393;49.378;8.686;2023-02-12T06:02:59;34.85;;;22.60;;
25479;SDS011;13393;49.378;8.686;2023-02-12T06:05:25;37.15;;;24.50;;
25479;SDS011;13393;49.378;8.686;2023-02-12T06:07:52;42.28;;;24.83;;
25479;SDS011;13393;49.378;8.686;2023-02-12T06:10:18;40.00;;;25.05;;
25479;SDS011;13393;49.378;8.686;2023-02-12T06:12:44;37.92;;;24.52;;
25479;SDS011;13393;49.378;8.686;2023-02-12T06:15:12;37.10;;;22.65;;
25479;SDS011;13393;49.378;8.686;2023-02-12T06:17:38;37.22;;;22.38;;
25479;SDS011;13393;49.378;8.686;2023-02-12T06:20:05;39.88;;;25.00;;
25479;SDS011;13393;49.378;8.686;2023-02-12T06:22:31;34.28;;;22.77;;
25479;SDS011;13393;49.378;8.686;2023-02-12T06:24:58;38.38;;;24.13;;
25479;SDS011;13393;49.378;8.686;2023-02-12T06:27:24;40.10;;;24.80;;
25479;SDS011;13393;49.378;8.686;2023-02-12T06:29:50;34.95;;;23.50;;
25479;SDS011;13393;49.378;8.686;2023-02-12T06:32:18;36.25;;;22.63;;
25479;SDS011;13393;49.378;8.686;2023-02-12T06:34:45;35.92;;;23.05;;
25479;SDS011;13393;49.378;8.686;2023-02-12T06:37:12;36.92;;;23.95;;
25479;SDS011;13393;49.378;8.686;2023-02-12T06:39:38;37.88;;;24.17;;
25479;SDS011;13393;49.378;8.686;2023-02-12T06:42:04;35.35;;;21.02;;
25479;SDS011;13393;49.378;8.686;2023-02-12T06:44:31;34.92;;;22.73;;
25479;SDS011;13393;49.378;8.686;2023-02-12T06:46:57;34.75;;;22.60;;
25479;SDS011;13393;49.378;8.686;2023-02-12T06:49:25;36.88;;;21.58;;
25479;SDS011;13393;49.378;8.686;2023-02-12T06:51:51;30.42;;;18.67;;
25479;SDS011;13393;49.378;8.686;2023-02-12T06:54:17;29.00;;;19.27;;
25479;SDS011;13393;49.378;8.686;2023-02-12T06:56:44;27.70;;;18.80;;
25479;SDS011;13393;49.378;8.686;2023-02-12T06:59:11;29.92;;;19.50;;
25479;SDS011;13393;49.378;8.686;2023-02-12T07:01:38;30.27;;;18.65;;
25479;SDS011;13393;49.378;8.686;2023-02-12T07:04:04;30.98;;;18.45;;
25479;SDS011;13393;49.378;8.686;2023-02-12T07:06:33;30.90;;;19.08;;
25479;SDS011;13393;49.378;8.686;2023-02-12T07:08:59;31.65;;;20.00;;
25479;SDS011;13393;49.378;8.686;2023-02-12T07:11:26;31.02;;;19.13;;
25479;SDS011;13393;49.378;8.686;2023-02-12T07:13:53;29.35;;;19.17;;
25479;SDS011;13393;49.378;8.686;2023-02-12T07:16:20;30.10;;;19.30;;
25479;SDS011;13393;49.378;8.686;2023-02-12T07:18:46;32.22;;;20.30;;
25479;SDS011;13393;49.378;8.686;2023-02-12T07:21:13;30.60;;;19.15;;
25479;SDS011;13393;49.378;8.686;2023-02-12T07:23:41;30.25;;;19.20;;
25479;SDS011;13393;49.378;8.686;2023-02-12T07:26:11;33.20;;;20.88;;
25479;SDS011;13393;49.378;8.686;2023-02-12T07:28:38;29.67;;;20.55;;
25479;SDS011;13393;49.378;8.686;2023-02-12T07:31:05;36.30;;;20.60;;
25479;SDS011;13393;49.378;8.686;2023-02-12T07:33:32;30.58;;;19.98;;
25479;SDS011;13393;49.378;8.686;2023-02-12T07:35:59;31.13;;;21.55;;
25479;SDS011;13393;49.378;8.686;2023-02-12T07:38:25;33.00;;;22.00;;
25479;SDS011;13393;49.378;8.686;2023-02-12T07:40:53;33.55;;;20.92;;
25479;SDS011;13393;49.378;8.686;2023-02-12T07:43:21;32.10;;;21.92;;
25479;SDS011;13393;49.378;8.686;2023-02-12T07:45:47;33.95;;;21.02;;
25479;SDS011;13393;49.378;8.686;2023-02-12T07:48:14;35.33;;;21.95;;
25479;SDS011;13393;49.378;8.686;2023-02-12T07:50:40;35.83;;;21.70;;
25479;SDS011;13393;49.378;8.686;2023-02-12T07:53:06;33.38;;;20.80;;
25479;SDS011;13393;49.378;8.686;2023-02-12T07:55:33;36.78;;;22.33;;
25479;SDS011;13393;49.378;8.686;2023-02-12T07:58:00;30.65;;;20.20;;
25479;SDS011;13393;49.378;8.686;2023-02-12T08:00:27;30.92;;;19.73;;
25479;SDS011;13393;49.378;8.686;2023-02-12T08:02:53;30.83;;;20.23;;
25479;SDS011;13393;49.378;8.686;2023-02-12T08:05:19;33.08;;;20.38;;
25479;SDS011;13393;49.378;8.686;2023-02-12T08:07:46;29.83;;;18.58;;
25479;SDS011;13393;49.378;8.686;2023-02-12T08:10:12;33.25;;;20.48;;
25479;SDS011;13393;49.378;8.686;2023-02-12T08:12:38;32.35;;;18.85;;
25479;SDS011;13393;49.378;8.686;2023-02-12T08:15:07;33.20;;;19.80;;
25479;SDS011;13393;49.378;8.686;2023-02-12T08:17:33;30.90;;;18.63;;
25479;SDS011;13393;49.378;8.686;2023-02-12T08:19:59;27.10;;;17.55;;
25479;SDS011;13393;49.378;8.686;2023-02-12T08:22:26;30.23;;;19.13;;
25479;SDS011;13393;49.378;8.686;2023-02-12T08:24:52;29.98;;;19.50;;
25479;SDS011;13393;49.378;8.686;2023-02-12T08:27:18;27.75;;;18.02;;
25479;SDS011;13393;49.378;8.686;2023-02-12T08:29:45;27.20;;;16.33;;
25479;SDS011;13393;49.378;8.686;2023-02-12T08:32:13;29.20;;;18.98;;
25479;SDS011;13393;49.378;8.686;2023-02-12T08:34:41;28.52;;;18.30;;
25479;SDS011;13393;49.378;8.686;2023-02-12T08:37:07;30.10;;;18.90;;
25479;SDS011;13393;49.378;8.686;2023-02-12T08:39:33;30.25;;;18.48;;
25479;SDS011;13393;49.378;8.686;2023-02-12T08:42:00;28.65;;;18.33;;
25479;SDS011;13393;49.378;8.686;2023-02-12T08:44:26;30.10;;;18.83;;
25479;SDS011;13393;49.378;8.686;2023-02-12T08:46:53;29.52;;;17.95;;
25479;SDS011;13393;49.378;8.686;2023-02-12T08:49:22;30.70;;;19.55;;
25479;SDS011;13393;49.378;8.686;2023-02-12T08:51:49;30.23;;;19.65;;
25479;SDS011;13393;49.378;8.686;2023-02-12T08:54:17;34.45;;;20.15;;
25479;SDS011;13393;49.378;8.686;2023-02-12T08:56:43;35.55;;;20.88;;
25479;SDS011;13393;49.378;8.686;2023-02-12T08:59:10;32.15;;;19.38;;
25479;SDS011;13393;49.378;8.686;2023-02-12T09:01:38;30.90;;;19.63;;
25479;SDS011;13393;49.378;8.686;2023-02-12T09:04:05;28.58;;;18.25;;
25479;SDS011;13393;49.378;8.686;2023-02-12T09:06:34;32.97;;;20.48;;
25479;SDS011;13393;49.378;8.686;2023-02-12T09:09:00;30.48;;;18.98;;
25479;SDS011;13393;49.378;8.686;2023-02-12T09:11:27;33.80;;;20.83;;
25479;SDS011;13393;49.378;8.686;2023-02-12T09:13:55;35.80;;;20.23;;
25479;SDS011;13393;49.378;8.686;2023-02-12T09:16:22;29.52;;;17.77;;
25479;SDS011;13393;49.378;8.686;2023-02-12T09:18:48;31.15;;;21.00;;
25479;SDS011;13393;49.378;8.686;2023-02-12T09:21:15;30.27;;;21.10;;
25479;SDS011;13393;49.378;8.686;2023-02-12T09:23:43;29.55;;;20.25;;
25479;SDS011;13393;49.378;8.686;2023-02-12T09:26:10;27.70;;;18.70;;
25479;SDS011;13393;49.378;8.686;2023-02-12T09:28:37;29.85;;;19.77;;
25479;SDS011;13393;49.378;8.686;2023-02-12T09:31:04;30.92;;;19.23;;
25479;SDS011;13393;49.378;8.686;2023-02-12T09:33:30;33.40;;;19.77;;
25479;SDS011;13393;49.378;8.686;2023-02-12T09:35:59;29.00;;;18.50;;
25479;SDS011;13393;49.378;8.686;2023-02-12T09:38:26;26.60;;;17.73;;
25479;SDS011;13393;49.378;8.686;2023-02-12T09:40:57;30.00;;;18.15;;
25479;SDS011;13393;49.378;8.686;2023-02-12T09:45:54;27.50;;;17.73;;
25479;SDS011;13393;49.378;8.686;2023-02-12T09:48:27;27.00;;;18.10;;
25479;SDS011;13393;49.378;8.686;2023-02-12T09:50:56;29.27;;;18.85;;
25479;SDS011;13393;49.378;8.686;2023-02-12T09:53:24;27.02;;;17.45;;
25479;SDS011;13393;49.378;8.686;2023-02-12T09:55:51;25.17;;;16.17;;
25479;SDS011;13393;49.378;8.686;2023-02-12T09:58:21;21.30;;;14.82;;
25479;SDS011;13393;49.378;8.686;2023-02-12T10:00:48;27.10;;;16.38;;
25479;SDS011;13393;49.378;8.686;2023-02-12T10:03:15;22.95;;;15.65;;
25479;SDS011;13393;49.378;8.686;2023-02-12T10:05:43;25.40;;;15.82;;
25479;SDS011;13393;49.378;8.686;2023-02-12T10:08:17;21.60;;;14.50;;
25479;SDS011;13393;49.378;8.686;2023-02-12T10:10:48;22.15;;;14.68;;
25479;SDS011;13393;49.378;8.686;2023-02-12T10:13:18;20.70;;;13.88;;
25479;SDS011;13393;49.378;8.686;2023-02-12T10:15:52;20.27;;;13.35;;
25479;SDS011;13393;49.378;8.686;2023-02-12T10:18:34;18.95;;;12.10;;
25479;SDS011;13393;49.378;8.686;2023-02-12T10:21:07;13.95;;;8.82;;
25479;SDS011;13393;49.378;8.686;2023-02-12T10:23:39;13.23;;;9.07;;
25479;SDS011;13393;49.378;8.686;2023-02-12T10:26:10;15.45;;;10.10;;
25479;SDS011;13393;49.378;8.686;2023-02-12T10:28:38;14.25;;;9.20;;
25479;SDS011;13393;49.378;8.686;2023-02-12T10:31:08;13.68;;;9.30;;
25479;SDS011;13393;49.378;8.686;2023-02-12T10:33:38;16.60;;;10.45;;
25479;SDS011;13393;49.378;8.686;2023-02-12T10:36:08;12.80;;;8.50;;
25479;SDS011;13393;49.378;8.686;2023-02-12T10:38:39;13.07;;;8.77;;
25479;SDS011;13393;49.378;8.686;2023-02-12T10:41:08;10.90;;;8.05;;
25479;SDS011;13393;49.378;8.686;2023-02-12T10:43:35;11.55;;;7.57;;
25479;SDS011;13393;49.378;8.686;2023-02-12T10:46:02;11.05;;;8.18;;
25479;SDS011;13393;49.378;8.686;2023-02-12T10:48:30;23.27;;;14.68;;
25479;SDS011;13393;49.378;8.686;2023-02-12T10:51:10;12.10;;;8.70;;
25479;SDS011;13393;49.378;8.686;2023-02-12T10:53:40;9.38;;;6.55;;
25479;SDS011;13393;49.378;8.686;2023-02-12T10:56:14;9.32;;;6.15;;
25479;SDS011;13393;49.378;8.686;2023-02-12T10:58:49;8.65;;;6.30;;
25479;SDS011;13393;49.378;8.686;2023-02-12T11:01:16;9.82;;;6.43;;
25479;SDS011;13393;49.378;8.686;2023-02-12T11:03:45;8.45;;;5.72;;
25479;SDS011;13393;49.378;8.686;2023-02-12T11:06:12;10.82;;;5.78;;
25479;SDS011;13393;49.378;8.686;2023-02-12T11:08:39;8.00;;;5.70;;
25479;SDS011;13393;49.378;8.686;2023-02-12T11:11:07;6.32;;;4.72;;
25479;SDS011;13393;49.378;8.686;2023-02-12T11:13:34;4.15;;;3.53;;
25479;SDS011;13393;49.378;8.686;2023-02-12T11:16:00;6.22;;;4.20;;
25479;SDS011;13393;49.378;8.686;2023-02-12T11:18:28;5.35;;;3.83;;
25479;SDS011;13393;49.378;8.686;2023-02-12T11:20:58;4.93;;;3.45;;
25479;SDS011;13393;49.378;8.686;2023-02-12T11:23:26;5.78;;;3.80;;
25479;SDS011;13393;49.378;8.686;2023-02-12T11:25:54;5.60;;;3.50;;
25479;SDS011;13393;49.378;8.686;2023-02-12T11:28:21;5.30;;;4.25;;
25479;SDS011;13393;49.378;8.686;2023-02-12T11:30:48;4.25;;;3.63;;
25479;SDS011;13393;49.378;8.686;2023-02-12T11:33:16;4.07;;;3.47;;
25479;SDS011;13393;49.378;8.686;2023-02-12T11:35:49;2.97;;;2.70;;
25479;SDS011;13393;49.378;8.686;2023-02-12T11:38:19;4.93;;;3.60;;
25479;SDS011;13393;49.378;8.686;2023-02-12T11:40:47;4.95;;;3.90;;
25479;SDS011;13393;49.378;8.686;2023-02-12T11:43:16;4.00;;;3.13;;
25479;SDS011;13393;49.378;8.686;2023-02-12T11:45:43;4.72;;;3.35;;
25479;SDS011;13393;49.378;8.686;2023-02-12T11:48:13;5.88;;;3.28;;
25479;SDS011;13393;49.378;8.686;2023-02-12T11:50:44;3.55;;;3.22;;
25479;SDS011;13393;49.378;8.686;2023-02-12T11:53:16;3.95;;;3.55;;
25479;SDS011;13393;49.378;8.686;2023-02-12T11:55:46;4.65;;;3.50;;
25479;SDS011;13393;49.378;8.686;2023-02-12T11:58:20;5.25;;;3.60;;
25479;SDS011;13393;49.378;8.686;2023-02-12T12:00:48;4.75;;;3.78;;
25479;SDS011;13393;49.378;8.686;2023-02-12T12:03:17;4.00;;;3.40;;
25479;SDS011;13393;49.378;8.686;2023-02-12T12:05:47;5.40;;;3.97;;
25479;SDS011;13393;49.378;8.686;2023-02-12T12:08:15;4.60;;;3.65;;
25479;SDS011;13393;49.378;8.686;2023-02-12T12:10:47;4.63;;;3.10;;
25479;SDS011;13393;49.378;8.686;2023-02-12T12:13:15;5.60;;;3.67;;
25479;SDS011;13393;49.378;8.686;2023-02-12T12:15:47;4.13;;;3.40;;
25479;SDS011;13393;49.378;8.686;2023-02-12T12:18:33;4.05;;;3.33;;
25479;SDS011;13393;49.378;8.686;2023-02-12T12:21:22;2.80;;;2.50;;
25479;SDS011;13393;49.378;8.686;2023-02-12T12:23:51;3.92;;;3.03;;
25479;SDS011;13393;49.378;8.686;2023-02-12T12:26:19;2.38;;;2.00;;
25479;SDS011;13393;49.378;8.686;2023-02-12T12:28:49;4.50;;;2.17;;
25479;SDS011;13393;49.378;8.686;2023-02-12T12:31:17;5.05;;;2.65;;
25479;SDS011;13393;49.378;8.686;2023-02-12T12:33:45;2.60;;;2.03;;
25479;SDS011;13393;49.378;8.686;2023-02-12T12:36:23;3.42;;;2.80;;
25479;SDS011;13393;49.378;8.686;2023-02-12T12:38:55;3.28;;;2.50;;
25479;SDS011;13393;49.378;8.686;2023-02-12T12:41:26;2.40;;;2.20;;
25479;SDS011;13393;49.378;8.686;2023-02-12T12:44:00;2.10;;;1.88;;
25479;SDS011;13393;49.378;8.686;2023-02-12T12:46:39;2.35;;;2.15;;
25479;SDS011;13393;49.378;8.686;2023-02-12T12:49:12;3.10;;;1.90;;
25479;SDS011;13393;49.378;8.686;2023-02-12T12:51:46;2.00;;;1.63;;
25479;SDS011;13393;49.378;8.686;2023-02-12T12:54:22;2.00;;;1.80;;
25479;SDS011;13393;49.378;8.686;2023-02-12T12:56:55;1.85;;;1.70;;
25479;SDS011;13393;49.378;8.686;2023-02-12T12:59:31;1.60;;;1.50;;
25479;SDS011;13393;49.378;8.686;2023-02-12T13:02:27;2.33;;;2.13;;
25479;SDS011;13393;49.378;8.686;2023-02-12T13:07:45;2.20;;;1.90;;
25479;SDS011;13393;49.378;8.686;2023-02-12T13:10:20;2.33;;;2.13;;
25479;SDS011;13393;49.378;8.686;2023-02-12T13:12:57;2.28;;;2.08;;
25479;SDS011;13393;49.378;8.686;2023-02-12T13:15:29;3.22;;;1.98;;
25479;SDS011;13393;49.378;8.686;2023-02-12T13:18:00;2.58;;;2.03;;
25479;SDS011;13393;49.378;8.686;2023-02-12T13:20:32;2.40;;;2.20;;
25479;SDS011;13393;49.378;8.686;2023-02-12T13:23:03;2.22;;;2.00;;
25479;SDS011;13393;49.378;8.686;2023-02-12T13:25:31;2.65;;;2.22;;
25479;SDS011;13393;49.378;8.686;2023-02-12T13:28:01;2.38;;;2.17;;
25479;SDS011;13393;49.378;8.686;2023-02-12T13:30:29;2.50;;;2.10;;
25479;SDS011;13393;49.378;8.686;2023-02-12T13:33:00;2.90;;;2.35;;
25479;SDS011;13393;49.378;8.686;2023-02-12T13:35:28;2.65;;;2.30;;
25479;SDS011;13393;49.378;8.686;2023-02-12T13:37:55;2.60;;;2.25;;
25479;SDS011;13393;49.378;8.686;2023-02-12T13:40:22;3.13;;;2.83;;
25479;SDS011;13393;49.378;8.686;2023-02-12T13:42:50;3.28;;;2.67;;
25479;SDS011;13393;49.378;8.686;2023-02-12T13:45:33;3.83;;;2.67;;
25479;SDS011;13393;49.378;8.686;2023-02-12T13:48:09;3.50;;;2.60;;
25479;SDS011;13393;49.378;8.686;2023-02-12T13:50:39;6.88;;;3.20;;
25479;SDS011;13393;49.378;8.686;2023-02-12T13:53:10;3.00;;;2.70;;
25479;SDS011;13393;49.378;8.686;2023-02-12T13:55:43;3.53;;;2.90;;
25479;SDS011;13393;49.378;8.686;2023-02-12T14:03:24;3.55;;;2.90;;
25479;SDS011;13393;49.378;8.686;2023-02-12T14:06:05;3.33;;;2.70;;
25479;SDS011;13393;49.378;8.686;2023-02-12T14:08:34;2.92;;;2.70;;
25479;SDS011;13393;49.378;8.686;2023-02-12T14:11:04;4.07;;;3.60;;
25479;SDS011;13393;49.378;8.686;2023-02-12T14:13:32;5.05;;;3.40;;
25479;SDS011;13393;49.378;8.686;2023-02-12T21:05:16;21.98;;;13.32;;
25479;SDS011;13393;49.378;8.686;2023-02-12T21:07:42;18.98;;;11.68;;
25479;SDS011;13393;49.378;8.686;2023-02-12T21:10:09;20.77;;;12.77;;
25479;SDS011;13393;49.378;8.686;2023-02-12T21:12:36;16.23;;;11.30;;
25479;SDS011;13393;49.378;8.686;2023-02-12T21:15:03;19.80;;;13.02;;
25479;SDS011;13393;49.378;8.686;2023-02-12T21:17:30;19.25;;;12.55;;
25479;SDS011;13393;49.378;8.686;2023-02-12T21:19:56;23.08;;;13.35;;
25479;SDS011;13393;49.378;8.686;2023-02-12T21:22:24;17.88;;;12.20;;
25479;SDS011;13393;49.378;8.686;2023-02-12T21:24:50;20.38;;;12.63;;
25479;SDS011;13393;49.378;8.686;2023-02-12T21:27:17;20.52;;;14.05;;
25479;SDS011;13393;49.378;8.686;2023-02-12T21:29:43;23.55;;;14.25;;
25479;SDS011;13393;49.378;8.686;2023-02-12T21:32:09;21.35;;;14.15;;
25479;SDS011;13393;49.378;8.686;2023-02-12T21:34:36;22.85;;;13.40;;
25479;SDS011;13393;49.378;8.686;2023-02-12T21:37:02;19.77;;;13.38;;
25479;SDS011;13393;49.378;8.686;2023-02-12T21:39:30;22.58;;;15.48;;